TimeGMT,TemperatureF,Dew PointF,Humidity,Sea Level PressureIn,VisibilityMPH,Wind Direction,Wind SpeedMPH,Gust SpeedMPH,PrecipitationIn,Events,Conditions,WindDirDegrees,DateUTC
12:00 AM,37,36,97,29.83,,SSE,11.2,,,,,150,2013-01-25 00:00:00
6:00 AM,39,39,98,29.65,1,SSE,17.9,,,Rain,Light Rain,150,2013-01-25 06:00:00
6:00 AM,39.2,39.2,100,29.62,1.4,SSE,18.4,-,N/A,Rain,Light Rain,150,2013-01-25 06:00:00
7:00 AM,39.2,39.2,100,29.59,0.2,SSE,17.3,-,N/A,Rain,Light Rain,150,2013-01-25 07:00:00
8:00 AM,39.2,39.2,100,29.53,0.2,SSE,15.0,-,N/A,Rain,Light Rain,150,2013-01-25 08:00:00
8:30 AM,39.2,39.2,100,29.53,0.2,SSE,16.1,-,N/A,Rain,Rain,150,2013-01-25 08:30:00
9:00 AM,39.2,39.2,100,29.53,0.1,SSE,15.0,-,N/A,Rain,Light Drizzle,150,2013-01-25 09:00:00
9:30 AM,41.0,41.0,100,29.50,0.3,SSE,16.1,-,N/A,Rain,Light Rain,160,2013-01-25 09:30:00
10:00 AM,41.0,41.0,100,29.50,1.4,SSE,17.3,-,N/A,Rain,Light Rain,160,2013-01-25 10:00:00
10:30 AM,42.8,42.8,100,29.47,4.3,South,16.1,-,N/A,Rain,Light Rain,170,2013-01-25 10:30:00
11:00 AM,42.8,42.8,100,29.47,0.4,South,16.1,28.8,N/A,Rain,Light Drizzle,170,2013-01-25 11:00:00
11:30 AM,42.8,42.8,100,29.44,0.4,South,16.1,-,N/A,Rain,Rain,170,2013-01-25 11:30:00
12:00 PM,44,44,99,29.46,0,South,15.7,,,Rain,Light Rain,170,2013-01-25 12:00:00
12:00 PM,44.6,44.6,100,29.42,0.2,South,16.1,-,N/A,Rain,Light Drizzle,170,2013-01-25 12:00:00
12:30 PM,44.6,44.6,100,29.42,0.3,South,17.3,-,N/A,,Light Drizzle,190,2013-01-25 12:30:00
1:30 PM,44.6,44.6,100,29.36,0.2,South,18.4,-,N/A,Fog,Light Drizzle,190,2013-01-25 13:30:00
2:00 PM,44.6,44.6,100,29.39,0.2,SSW,15.0,-,N/A,,Light Drizzle,200,2013-01-25 14:00:00
2:30 PM,44.6,44.6,100,29.36,0.2,SSW,12.7,-,N/A,Fog,Light Drizzle,210,2013-01-25 14:30:00
3:00 PM,46.4,44.6,93,29.36,1.6,WSW,12.7,-,N/A,,Light Drizzle,250,2013-01-25 15:00:00
3:30 PM,46.4,44.6,93,29.36,6.2,West,16.1,-,N/A,,Mostly Cloudy,270,2013-01-25 15:30:00
4:00 PM,44.6,44.6,100,29.36,6.2,WNW,20.7,-,N/A,,Light Drizzle,300,2013-01-25 16:00:00
4:30 PM,44.6,44.6,100,29.36,6.2,WNW,18.4,-,N/A,,Mostly Cloudy,300,2013-01-25 16:30:00
5:00 PM,44.6,42.8,93,29.36,6.2,NW,13.8,-,N/A,,Light Drizzle,310,2013-01-25 17:00:00
6:00 PM,43,41,91,29.42,16,NW,11.2,,,Rain,Light Drizzle,320,2013-01-25 18:00:00
6:00 PM,42.8,41.0,93,29.39,6.2,NW,11.5,-,N/A,,Overcast,320,2013-01-25 18:00:00
7:00 PM,42.8,39.2,87,29.44,6.2,WNW,17.3,-,N/A,,Overcast,300,2013-01-25 19:00:00
8:00 PM,41.0,37.4,87,29.47,6.2,WNW,16.1,-,N/A,,Scattered Clouds,300,2013-01-25 20:00:00
9:00 PM,41.0,33.8,76,29.53,6.2,WNW,13.8,-,N/A,,Scattered Clouds,290,2013-01-25 21:00:00
9:30 PM,41.0,33.8,76,29.53,6.2,WNW,15.0,-,N/A,,Mostly Cloudy,290,2013-01-25 21:30:00
10:00 PM,39.2,33.8,81,29.56,6.2,WNW,13.8,-,N/A,,Partly Cloudy,290,2013-01-25 22:00:00